Terminal Aerodrome Forecast
Issued by NWS

Home | Current Version | Previous Version | Text Only | Print | Product List | Glossary On
Versions: 1 2 3 4 5 6 7 8 9 10 11 12 13 14 15 16 17 18 19 20 21 22 23 24 25 26 27 28 29 30 31
728
FTUS41 KBOX 181120
TAFBAF
TAF
KBAF 181120Z 1812/1912 19004KT P6SM VCSH OVC009
     FM181400 17006KT 5SM -SHRA BR OVC010
     FM181600 18007KT 3SM -SHRA BR VCTS OVC008CB
     FM190000 17007KT 3SM -SHRA BR BKN015
     FM190600 VRB03KT 5SM BR BKN025
     FM190700 VRB03KT P6SM BKN025=

USA.gov is the U.S. government's official web portal to all federal, state and local government web resources and services.